Time;durP1;ratioP1;P1;durP2;ratioP2;P2;SDS_P1;SDS_P2;PMS_P1;PMS_P2;Temp;Humidity;BMP_temperature;BMP_pressure;BME280_temperature;BME280_humidity;BME280_pressure;Samples;Min_cycle;Max_cycle;Signal;HPM_P1;HPM_P2
2021/04/25 00:00:23;;;;;;;11.77;7.03;;;10.10;83.60;;;;;;5073107;28;20197;-49
2021/04/25 00:02:49;;;;;;;9.80;7.60;;;10.00;83.80;;;;;;5072035;28;20210;-54
2021/04/25 00:05:17;;;;;;;9.20;7.27;;;10.10;84.10;;;;;;5076264;28;20178;-48
2021/04/25 00:07:43;;;;;;;8.03;7.17;;;10.00;84.50;;;;;;5057442;28;20195;-53
2021/04/25 00:10:10;;;;;;;9.40;7.73;;;10.00;84.70;;;;;;5055971;28;20654;-50
2021/04/25 00:12:41;;;;;;;9.13;7.47;;;9.90;86.00;;;;;;5072486;28;20664;-46
2021/04/25 00:15:10;;;;;;;10.90;8.23;;;9.90;86.50;;;;;;5076051;28;20214;-46
2021/04/25 00:17:35;;;;;;;9.73;7.97;;;9.80;86.90;;;;;;5062040;28;20190;-51
2021/04/25 00:20:01;;;;;;;11.30;7.80;;;9.80;87.10;;;;;;5056311;28;20175;-49
2021/04/25 00:22:26;;;;;;;10.87;8.50;;;9.80;87.40;;;;;;5074967;28;20209;-54
2021/04/25 00:24:52;;;;;;;11.10;7.90;;;9.80;87.60;;;;;;5076384;28;20257;-49
2021/04/25 00:27:17;;;;;;;11.30;7.77;;;9.80;87.60;;;;;;5056168;28;20521;-48
2021/04/25 00:29:43;;;;;;;9.97;7.90;;;9.70;87.50;;;;;;5073617;28;20320;-50
2021/04/25 00:32:09;;;;;;;9.50;7.63;;;9.70;87.70;;;;;;5075189;28;20174;-47
2021/04/25 00:34:34;;;;;;;10.67;7.97;;;9.70;87.90;;;;;;5066365;28;20206;-48
2021/04/25 00:37:00;;;;;;;12.97;8.63;;;9.70;88.20;;;;;;5055718;28;20571;-49
2021/04/25 00:39:25;;;;;;;13.23;8.50;;;9.70;88.30;;;;;;5072990;28;20251;-46
2021/04/25 00:41:51;;;;;;;10.83;8.10;;;9.70;88.70;;;;;;5074802;28;20182;-53
2021/04/25 00:44:16;;;;;;;12.70;8.37;;;9.60;88.50;;;;;;5062335;28;20182;-48
2021/04/25 00:46:42;;;;;;;9.97;7.93;;;9.60;88.90;;;;;;5065355;28;20221;-46
2021/04/25 00:49:08;;;;;;;12.13;8.63;;;9.60;89.10;;;;;;5059845;28;20250;-46
2021/04/25 00:51:33;;;;;;;11.80;8.70;;;9.50;89.50;;;;;;5054904;28;20543;-48
2021/04/25 00:54:01;;;;;;;10.27;8.07;;;9.50;89.70;;;;;;5064026;28;20178;-51
2021/04/25 00:56:28;;;;;;;10.03;8.73;;;9.50;89.80;;;;;;5055931;28;20655;-52
2021/04/25 00:58:53;;;;;;;11.43;8.60;;;9.50;90.10;;;;;;5063681;28;20222;-47
2021/04/25 01:01:19;;;;;;;11.13;8.83;;;9.50;90.10;;;;;;5072928;28;20197;-46
2021/04/25 01:03:45;;;;;;;11.40;8.60;;;9.50;90.00;;;;;;5070423;28;20186;-48
2021/04/25 01:06:10;;;;;;;10.63;8.43;;;9.50;90.10;;;;;;5054963;28;20253;-48
2021/04/25 01:08:36;;;;;;;11.63;9.10;;;9.50;90.10;;;;;;5070170;28;20178;-49
2021/04/25 01:11:02;;;;;;;12.90;8.80;;;9.50;90.30;;;;;;5067841;28;20543;-46
2021/04/25 01:13:28;;;;;;;11.50;8.30;;;9.40;90.40;;;;;;5068746;28;20646;-51
2021/04/25 01:15:53;;;;;;;12.13;9.00;;;9.40;90.40;;;;;;5067597;28;20203;-49
2021/04/25 01:18:19;;;;;;;11.83;8.40;;;9.40;90.50;;;;;;5068738;28;20182;-48
2021/04/25 01:20:45;;;;;;;12.17;8.70;;;9.30;90.50;;;;;;5073727;28;20189;-47
2021/04/25 01:23:11;;;;;;;11.70;8.50;;;9.30;90.80;;;;;;5057209;28;20228;-46
2021/04/25 01:25:37;;;;;;;10.87;8.47;;;9.30;90.70;;;;;;5067917;28;20211;-46
2021/04/25 01:28:02;;;;;;;13.73;9.50;;;9.30;90.80;;;;;;5055977;28;20187;-48
2021/04/25 01:30:31;;;;;;;12.80;8.77;;;9.30;90.70;;;;;;5074605;28;20181;-49
2021/04/25 01:32:56;;;;;;;11.30;9.07;;;9.30;90.90;;;;;;5072367;28;20174;-47
2021/04/25 01:35:24;;;;;;;10.00;8.53;;;9.30;90.90;;;;;;5073939;28;20228;-46
2021/04/25 01:37:51;;;;;;;10.60;8.97;;;9.20;90.90;;;;;;5054237;28;20193;-47
2021/04/25 01:40:18;;;;;;;13.37;9.07;;;9.20;91.00;;;;;;5054317;28;20202;-52
2021/04/25 01:42:44;;;;;;;10.87;8.93;;;9.10;91.10;;;;;;5054111;28;20186;-49
2021/04/25 01:45:16;;;;;;;10.67;8.43;;;9.20;91.10;;;;;;5054559;28;20170;-48
2021/04/25 01:47:43;;;;;;;12.40;9.10;;;9.20;91.20;;;;;;5074126;28;20202;-47
2021/04/25 01:50:09;;;;;;;11.90;10.00;;;9.10;91.20;;;;;;5073663;28;20177;-53
2021/04/25 01:52:35;;;;;;;14.40;10.00;;;9.10;91.20;;;;;;5054360;28;20681;-48
2021/04/25 01:55:00;;;;;;;12.13;9.03;;;9.10;91.30;;;;;;5054197;28;20214;-48
2021/04/25 01:57:26;;;;;;;11.40;8.27;;;9.00;91.40;;;;;;5038548;28;20203;-53
2021/04/25 01:59:51;;;;;;;12.97;9.30;;;9.00;91.50;;;;;;5054244;28;20190;-50
2021/04/25 02:02:17;;;;;;;10.53;8.60;;;9.00;91.60;;;;;;5071509;28;20316;-46
2021/04/25 02:04:43;;;;;;;12.97;8.33;;;9.00;91.60;;;;;;5058842;28;20244;-47
2021/04/25 02:07:08;;;;;;;12.43;8.70;;;9.00;91.80;;;;;;5053597;28;20206;-48
2021/04/25 02:09:34;;;;;;;12.20;9.00;;;8.90;91.80;;;;;;5066594;28;20201;-47
2021/04/25 02:11:59;;;;;;;13.00;9.07;;;8.80;91.90;;;;;;5068122;28;20181;-46
2021/04/25 02:14:26;;;;;;;10.23;9.10;;;8.80;92.00;;;;;;5064844;28;20669;-46
2021/04/25 02:16:51;;;;;;;12.83;8.70;;;8.80;92.10;;;;;;5060289;28;20281;-47
2021/04/25 02:19:17;;;;;;;14.07;9.57;;;8.80;92.30;;;;;;5072611;28;20273;-51
2021/04/25 02:21:43;;;;;;;10.63;8.63;;;8.70;92.30;;;;;;5073406;28;20178;-51
2021/04/25 02:24:08;;;;;;;13.73;9.53;;;8.70;92.40;;;;;;5071990;28;20191;-48
2021/04/25 02:26:34;;;;;;;11.27;9.27;;;8.60;92.50;;;;;;5062598;28;20286;-49
2021/04/25 02:28:59;;;;;;;11.87;9.03;;;8.60;92.70;;;;;;5061145;28;20182;-47
2021/04/25 02:31:25;;;;;;;11.60;9.00;;;8.50;92.80;;;;;;5073500;28;20660;-47
2021/04/25 02:33:51;;;;;;;12.67;9.10;;;8.50;92.80;;;;;;5056944;28;20180;-51
2021/04/25 02:36:16;;;;;;;12.83;9.73;;;8.50;92.90;;;;;;5055376;28;20222;-47
2021/04/25 02:38:42;;;;;;;11.47;9.00;;;8.50;93.00;;;;;;5071707;28;20538;-47
2021/04/25 02:41:07;;;;;;;11.73;9.37;;;8.50;93.20;;;;;;5070422;28;20185;-48
2021/04/25 02:43:33;;;;;;;12.17;9.30;;;8.40;93.20;;;;;;5073535;28;20256;-48
2021/04/25 02:45:58;;;;;;;13.70;9.47;;;8.40;93.20;;;;;;5067468;28;20683;-48
2021/04/25 02:48:24;;;;;;;11.50;9.10;;;8.40;93.30;;;;;;5056509;28;20174;-48
2021/04/25 02:50:50;;;;;;;12.43;9.60;;;8.40;93.40;;;;;;5073022;28;20627;-48
2021/04/25 02:53:15;;;;;;;14.70;9.03;;;8.40;93.60;;;;;;5072201;28;20551;-49
2021/04/25 02:55:41;;;;;;;12.63;9.63;;;8.40;93.40;;;;;;5053441;28;20195;-47
2021/04/25 02:58:07;;;;;;;14.87;9.53;;;8.40;93.70;;;;;;5065531;28;20178;-46
2021/04/25 03:00:34;;;;;;;11.97;8.80;;;8.40;93.60;;;;;;5062824;28;20175;-46
2021/04/25 03:03:00;;;;;;;12.60;9.47;;;8.40;93.70;;;;;;5056305;28;20179;-48
2021/04/25 03:05:27;;;;;;;13.97;9.33;;;8.30;93.70;;;;;;5057560;28;20183;-48
2021/04/25 03:07:53;;;;;;;13.17;9.23;;;8.30;93.80;;;;;;5066079;28;20229;-46
2021/04/25 03:10:20;;;;;;;11.57;8.83;;;8.30;94.00;;;;;;5061539;28;20245;-55
2021/04/25 03:12:46;;;;;;;13.10;8.73;;;8.30;93.80;;;;;;5076906;28;20175;-51
2021/04/25 03:15:14;;;;;;;13.60;9.63;;;8.30;93.90;;;;;;5076637;28;20185;-46
2021/04/25 03:17:40;;;;;;;12.33;9.87;;;8.30;94.20;;;;;;5057968;28;20199;-46
2021/04/25 03:20:11;;;;;;;12.77;9.73;;;8.30;93.90;;;;;;5071272;28;20181;-48
2021/04/25 03:22:37;;;;;;;13.90;9.63;;;8.30;93.90;;;;;;5067844;28;20534;-46
2021/04/25 03:25:05;;;;;;;13.57;9.57;;;8.30;94.00;;;;;;5057065;28;20656;-49
2021/04/25 03:27:30;;;;;;;10.93;9.00;;;8.30;94.00;;;;;;5075516;28;20697;-50
2021/04/25 03:29:56;;;;;;;11.40;9.43;;;8.30;94.00;;;;;;5059099;28;20183;-49
2021/04/25 03:32:22;;;;;;;12.47;9.67;;;8.30;94.00;;;;;;5056832;28;20180;-48
2021/04/25 03:34:47;;;;;;;12.37;9.43;;;8.30;94.10;;;;;;5056739;28;20176;-49
2021/04/25 03:37:13;;;;;;;10.67;8.97;;;8.20;94.10;;;;;;5060031;28;20194;-46
2021/04/25 03:39:38;;;;;;;13.57;9.37;;;8.20;94.10;;;;;;5074535;28;20637;-48
2021/04/25 03:42:04;;;;;;;13.03;9.30;;;8.20;94.20;;;;;;5071220;28;20190;-46
2021/04/25 03:44:30;;;;;;;11.33;8.63;;;8.20;94.30;;;;;;5064150;28;20286;-48
2021/04/25 03:46:56;;;;;;;11.87;9.40;;;8.10;94.30;;;;;;5056207;28;20290;-47
2021/04/25 03:49:23;;;;;;;12.43;9.57;;;8.10;94.30;;;;;;5066235;28;20175;-49
2021/04/25 03:51:49;;;;;;;12.70;9.07;;;8.10;94.30;;;;;;5065115;28;20193;-46
2021/04/25 03:54:15;;;;;;;12.43;9.10;;;8.10;94.40;;;;;;5065201;28;20649;-48
2021/04/25 03:56:41;;;;;;;12.57;8.87;;;8.10;94.60;;;;;;5065886;28;20248;-48
2021/04/25 03:59:07;;;;;;;13.67;9.37;;;8.00;94.60;;;;;;5060478;28;20176;-47
2021/04/25 04:01:33;;;;;;;13.03;8.77;;;8.00;94.70;;;;;;5060567;28;20186;-46
2021/04/25 04:03:58;;;;;;;13.43;8.93;;;8.00;94.70;;;;;;5061676;28;20182;-48
2021/04/25 04:06:24;;;;;;;11.80;8.80;;;8.00;95.20;;;;;;5074444;28;20225;-47
2021/04/25 04:08:49;;;;;;;11.73;9.00;;;7.90;95.00;;;;;;5071926;28;20179;-46
2021/04/25 04:11:15;;;;;;;10.00;8.17;;;7.90;95.20;;;;;;5073560;28;20193;-49
2021/04/25 04:13:41;;;;;;;12.07;8.87;;;7.90;95.10;;;;;;5056241;28;20195;-51
2021/04/25 04:16:07;;;;;;;11.27;8.53;;;7.90;95.10;;;;;;5061685;28;20204;-47
2021/04/25 04:18:32;;;;;;;11.47;8.67;;;7.90;95.20;;;;;;5059836;28;20166;-48
2021/04/25 04:20:58;;;;;;;12.23;9.40;;;7.90;95.20;;;;;;5075568;28;20265;-49
2021/04/25 04:23:24;;;;;;;11.83;8.97;;;8.00;95.20;;;;;;5059749;28;20191;-47
2021/04/25 04:25:49;;;;;;;12.17;9.17;;;8.90;95.60;;;;;;5060050;28;20248;-48
2021/04/25 04:28:15;;;;;;;11.20;8.30;;;8.00;95.40;;;;;;5075318;28;20174;-47
2021/04/25 04:30:40;;;;;;;11.23;8.43;;;8.00;95.40;;;;;;5071929;28;20179;-46
2021/04/25 04:33:07;;;;;;;13.53;8.70;;;7.90;95.40;;;;;;5072201;28;20170;-47
2021/04/25 04:35:33;;;;;;;12.20;9.67;;;8.00;95.50;;;;;;5056395;28;20218;-48
2021/04/25 04:37:58;;;;;;;12.40;8.77;;;8.00;95.60;;;;;;5065078;28;20218;-49
2021/04/25 04:40:24;;;;;;;12.03;8.77;;;8.00;95.60;;;;;;5072588;28;20193;-46
2021/04/25 04:42:49;;;;;;;10.63;8.60;;;8.30;95.70;;;;;;5084452;28;20174;-46
2021/04/25 04:45:16;;;;;;;13.90;8.93;;;8.10;95.70;;;;;;5074788;28;20582;-50
2021/04/25 04:47:43;;;;;;;11.33;8.37;;;8.10;95.70;;;;;;5060779;28;20701;-46
2021/04/25 04:50:09;;;;;;;11.90;9.27;;;8.10;95.80;;;;;;5059968;28;20171;-47
2021/04/25 04:52:34;;;;;;;9.73;7.90;;;8.20;95.50;;;;;;5067814;28;20183;-49
2021/04/25 04:55:00;;;;;;;13.23;8.50;;;8.10;95.50;;;;;;5040214;28;20584;-49
2021/04/25 04:57:26;;;;;;;10.37;8.30;;;8.20;95.60;;;;;;5072737;28;20205;-47
2021/04/25 04:59:51;;;;;;;12.57;9.53;;;8.20;95.50;;;;;;5057460;28;20257;-46
2021/04/25 05:02:17;;;;;;;11.47;8.87;;;8.20;95.40;;;;;;5055717;28;20222;-48
2021/04/25 05:04:42;;;;;;;13.33;8.50;;;8.30;95.70;;;;;;5055241;28;20241;-54
2021/04/25 05:07:08;;;;;;;11.90;8.90;;;8.30;95.30;;;;;;5056086;28;20214;-50
2021/04/25 05:09:34;;;;;;;11.33;8.60;;;8.40;95.30;;;;;;5054939;28;20183;-47
2021/04/25 05:11:59;;;;;;;13.00;8.20;;;8.50;95.20;;;;;;5073410;28;20190;-47
2021/04/25 05:14:25;;;;;;;14.07;8.10;;;8.50;95.40;;;;;;5074390;28;20220;-48
2021/04/25 05:16:50;;;;;;;12.90;8.87;;;8.50;95.10;;;;;;5056394;28;20656;-49
2021/04/25 05:19:16;;;;;;;10.60;8.50;;;8.60;94.90;;;;;;5054454;28;20233;-46
2021/04/25 05:21:42;;;;;;;11.93;8.70;;;8.60;94.90;;;;;;5068730;28;20186;-48
2021/04/25 05:24:08;;;;;;;13.17;8.67;;;8.70;95.10;;;;;;5074340;28;20189;-50
2021/04/25 05:26:34;;;;;;;11.03;8.27;;;8.80;95.20;;;;;;5070843;28;20289;-47
2021/04/25 05:29:00;;;;;;;10.07;8.27;;;8.80;94.80;;;;;;5064829;28;20209;-50
2021/04/25 05:31:25;;;;;;;13.10;9.03;;;8.90;94.80;;;;;;5052172;28;20214;-48
2021/04/25 05:33:51;;;;;;;11.00;8.03;;;9.00;95.00;;;;;;5068702;28;20178;-46
2021/04/25 05:36:16;;;;;;;10.43;8.03;;;9.00;94.80;;;;;;5056471;28;20191;-48
2021/04/25 05:38:42;;;;;;;10.67;7.77;;;9.10;95.10;;;;;;5059632;28;20198;-49
2021/04/25 05:41:08;;;;;;;10.73;8.50;;;9.10;95.10;;;;;;5061283;28;20650;-46
2021/04/25 05:43:33;;;;;;;12.83;8.30;;;9.20;95.10;;;;;;5072581;28;20186;-49
2021/04/25 05:45:59;;;;;;;12.40;8.13;;;9.30;94.90;;;;;;5067931;28;20217;-49
2021/04/25 05:48:24;;;;;;;10.07;7.87;;;9.40;94.90;;;;;;5054269;28;20643;-46
2021/04/25 05:50:50;;;;;;;10.70;7.77;;;9.40;95.00;;;;;;5054748;28;20191;-48
2021/04/25 05:53:16;;;;;;;10.70;8.10;;;9.40;94.70;;;;;;5071823;28;20194;-47
2021/04/25 05:55:42;;;;;;;10.67;7.50;;;9.50;94.90;;;;;;5066955;28;20197;-47
2021/04/25 05:58:08;;;;;;;9.73;8.10;;;9.60;94.90;;;;;;5073402;28;20193;-48
2021/04/25 06:00:37;;;;;;;13.27;8.60;;;9.60;94.90;;;;;;5068879;28;20190;-51
2021/04/25 06:03:04;;;;;;;9.77;8.40;;;9.70;95.10;;;;;;5069724;28;20186;-54
2021/04/25 06:05:29;;;;;;;11.33;8.00;;;9.70;95.00;;;;;;5069943;28;20265;-49
2021/04/25 06:07:55;;;;;;;12.80;8.20;;;9.80;94.90;;;;;;5062156;28;20265;-46
2021/04/25 06:10:21;;;;;;;11.50;8.03;;;9.80;95.10;;;;;;5076027;28;20193;-46
2021/04/25 06:12:49;;;;;;;8.93;7.17;;;9.80;95.50;;;;;;5068166;28;20245;-48
2021/04/25 06:15:16;;;;;;;12.30;8.50;;;9.90;95.00;;;;;;5069696;28;20194;-46
2021/04/25 06:17:41;;;;;;;10.27;8.23;;;10.00;94.60;;;;;;5068087;28;20198;-52
2021/04/25 06:20:08;;;;;;;9.60;7.87;;;10.10;94.40;;;;;;5066142;28;20170;-55
2021/04/25 06:22:33;;;;;;;10.07;8.00;;;10.20;94.40;;;;;;5071814;28;20210;-48
2021/04/25 06:24:59;;;;;;;10.23;8.07;;;10.30;94.00;;;;;;5070223;28;20208;-49
2021/04/25 06:27:25;;;;;;;11.63;7.87;;;10.40;94.20;;;;;;5082697;28;20615;-48
2021/04/25 06:29:52;;;;;;;11.77;7.93;;;10.50;94.50;;;;;;5084150;28;20174;-47
2021/04/25 06:32:18;;;;;;;9.60;7.53;;;10.50;93.90;;;;;;5059588;28;20531;-50
2021/04/25 06:34:44;;;;;;;14.67;8.70;;;10.50;93.80;;;;;;5073006;28;20650;-52
2021/04/25 06:37:10;;;;;;;11.10;7.83;;;10.60;93.50;;;;;;5070087;28;20206;-50
2021/04/25 06:39:35;;;;;;;10.67;7.63;;;10.70;93.00;;;;;;5097695;28;20196;-46
2021/04/25 06:42:01;;;;;;;10.53;7.53;;;10.70;92.90;;;;;;5079590;28;20240;-47
2021/04/25 06:44:27;;;;;;;10.17;8.40;;;10.70;92.50;;;;;;5074272;28;20194;-49
2021/04/25 06:46:54;;;;;;;12.07;8.30;;;10.90;93.00;;;;;;5061624;28;20214;-46
2021/04/25 06:49:20;;;;;;;13.20;8.03;;;10.90;92.50;;;;;;5065189;28;20182;-53
2021/04/25 06:51:45;;;;;;;11.93;8.10;;;11.00;93.10;;;;;;5062302;28;20496;-48
2021/04/25 06:54:11;;;;;;;10.97;8.00;;;11.10;92.30;;;;;;5075348;28;20167;-48
2021/04/25 06:56:37;;;;;;;12.60;8.00;;;11.30;91.90;;;;;;5076674;28;20201;-46
2021/04/25 06:59:04;;;;;;;9.93;7.73;;;11.30;91.90;;;;;;5076548;28;20175;-53
2021/04/25 07:01:29;;;;;;;12.87;7.97;;;11.30;92.20;;;;;;5065054;28;20175;-47
2021/04/25 07:03:55;;;;;;;9.53;7.27;;;11.40;91.10;;;;;;5061604;28;20269;-51
2021/04/25 07:06:20;;;;;;;8.53;7.27;;;11.30;91.90;;;;;;5059046;28;20229;-52
2021/04/25 07:08:47;;;;;;;8.60;7.30;;;11.30;92.90;;;;;;5075780;28;20631;-51
2021/04/25 07:11:13;;;;;;;10.17;7.17;;;11.30;91.90;;;;;;5068504;28;20175;-52
2021/04/25 07:13:39;;;;;;;12.00;7.53;;;11.40;91.60;;;;;;5066425;28;20176;-53
2021/04/25 07:16:05;;;;;;;8.90;7.43;;;11.50;91.30;;;;;;5069595;28;20200;-48
2021/04/25 07:18:30;;;;;;;9.23;7.33;;;11.70;92.30;;;;;;5065244;28;20183;-50
2021/04/25 07:20:56;;;;;;;9.87;7.50;;;11.80;91.50;;;;;;5074776;28;20228;-46
2021/04/25 07:23:24;;;;;;;7.40;6.30;;;11.80;92.10;;;;;;5072725;28;20635;-49
2021/04/25 07:25:50;;;;;;;8.63;7.43;;;11.90;92.70;;;;;;5055673;28;20306;-48
2021/04/25 07:28:15;;;;;;;9.57;7.67;;;12.10;92.40;;;;;;5056834;28;20206;-48
2021/04/25 07:30:41;;;;;;;11.70;6.87;;;12.20;92.40;;;;;;5060702;28;20278;-47
2021/04/25 07:33:07;;;;;;;8.93;7.40;;;12.40;91.50;;;;;;5061111;28;20175;-48
2021/04/25 07:35:32;;;;;;;9.17;7.30;;;12.60;90.80;;;;;;5076874;28;20193;-49
2021/04/25 07:37:58;;;;;;;9.90;7.70;;;12.80;90.10;;;;;;5075398;28;20206;-49
2021/04/25 07:40:23;;;;;;;10.67;7.87;;;12.80;89.90;;;;;;5076781;28;20622;-53
2021/04/25 07:42:49;;;;;;;9.53;7.43;;;12.90;90.60;;;;;;5075689;28;20526;-49
2021/04/25 07:45:15;;;;;;;9.40;7.57;;;12.90;91.20;;;;;;5076743;28;20316;-47
2021/04/25 07:47:42;;;;;;;9.53;7.30;;;12.70;90.90;;;;;;5075728;28;20218;-49
2021/04/25 07:50:10;;;;;;;10.90;7.97;;;14.30;93.00;;;;;;5075944;28;20611;-46
2021/04/25 07:52:36;;;;;;;11.43;7.77;;;12.70;91.90;;;;;;5074999;28;20191;-47
2021/04/25 07:55:03;;;;;;;9.47;7.53;;;12.60;91.60;;;;;;5075844;28;20253;-51
2021/04/25 07:57:29;;;;;;;8.90;7.77;;;12.60;91.70;;;;;;5074626;28;20202;-51
2021/04/25 07:59:54;;;;;;;10.60;8.07;;;12.70;92.50;;;;;;5076155;28;20236;-47
2021/04/25 08:02:22;;;;;;;10.40;7.70;;;12.70;92.00;;;;;;5076174;28;20178;-53
2021/04/25 08:04:49;;;;;;;9.33;7.33;;;12.70;92.30;;;;;;5075901;28;20201;-47
2021/04/25 08:07:14;;;;;;;10.03;8.47;;;12.60;92.10;;;;;;5076115;28;20206;-51
2021/04/25 08:09:40;;;;;;;10.90;7.80;;;12.70;91.00;;;;;;5076674;28;20178;-53
2021/04/25 08:12:06;;;;;;;9.63;8.07;;;12.60;90.40;;;;;;5075823;28;20170;-50
2021/04/25 08:14:32;;;;;;;10.10;7.83;;;12.70;92.50;;;;;;5060806;28;20278;-46
2021/04/25 08:16:58;;;;;;;11.90;8.13;;;12.60;92.10;;;;;;5064779;28;20278;-49
2021/04/25 08:19:23;;;;;;;10.93;8.63;;;12.50;90.70;;;;;;5060163;28;20210;-49
2021/04/25 08:21:49;;;;;;;9.13;7.87;;;12.60;92.50;;;;;;5068936;28;20185;-50
2021/04/25 08:24:14;;;;;;;14.60;8.00;;;12.60;91.20;;;;;;5054936;28;20601;-48
2021/04/25 08:26:40;;;;;;;10.00;8.17;;;12.90;92.60;;;;;;5067690;28;20218;-54
2021/04/25 08:29:06;;;;;;;9.20;8.10;;;12.80;90.50;;;;;;5056307;28;20202;-50
2021/04/25 08:31:31;;;;;;;8.60;7.70;;;12.80;88.90;;;;;;5055149;28;20657;-50
2021/04/25 08:33:57;;;;;;;10.13;7.70;;;12.90;91.10;;;;;;5072406;28;20179;-47
2021/04/25 08:36:22;;;;;;;11.50;8.33;;;12.90;91.90;;;;;;5057509;28;20220;-52
2021/04/25 08:38:48;;;;;;;11.23;8.83;;;13.10;91.80;;;;;;5055451;28;20195;-51
2021/04/25 08:41:15;;;;;;;14.10;8.93;;;13.20;90.70;;;;;;5055130;28;20269;-51
2021/04/25 08:43:42;;;;;;;13.47;8.60;;;13.00;88.50;;;;;;5054883;28;20186;-46
2021/04/25 08:46:09;;;;;;;10.10;7.90;;;12.90;86.30;;;;;;5057664;28;20229;-49
2021/04/25 08:48:35;;;;;;;11.60;8.33;;;12.90;86.90;;;;;;5065928;28;20190;-50
2021/04/25 08:51:01;;;;;;;10.37;7.93;;;12.90;87.40;;;;;;5075135;28;20178;-49
2021/04/25 08:53:27;;;;;;;10.60;8.70;;;13.10;90.40;;;;;;5074636;28;20522;-49
2021/04/25 08:55:52;;;;;;;11.20;7.93;;;13.30;89.10;;;;;;5074456;28;20195;-51
2021/04/25 08:58:20;;;;;;;9.83;8.27;;;13.60;85.70;;;;;;5075607;28;20245;-48
2021/04/25 09:00:46;;;;;;;9.07;7.87;;;13.70;87.00;;;;;;5075246;28;20627;-54
2021/04/25 09:03:11;;;;;;;10.90;8.17;;;13.90;84.10;;;;;;5073845;28;20206;-51
2021/04/25 09:05:37;;;;;;;12.30;8.87;;;14.00;85.30;;;;;;5074955;28;20176;-53
2021/04/25 09:08:04;;;;;;;10.73;8.53;;;13.90;87.80;;;;;;5073866;28;20180;-53
2021/04/25 09:10:34;;;;;;;11.40;8.70;;;13.70;88.80;;;;;;5074509;28;20218;-48
2021/04/25 09:13:12;;;;;;;11.03;8.73;;;13.70;87.50;;;;;;5074834;28;20313;-48
2021/04/25 09:15:38;;;;;;;11.57;8.73;;;13.80;90.50;;;;;;5074420;28;20677;-46
2021/04/25 09:18:07;;;;;;;10.37;8.17;;;14.60;88.00;;;;;;5075168;28;20180;-51
2021/04/25 09:20:46;;;;;;;11.30;9.00;;;14.00;88.00;;;;;;5074577;28;20249;-47
2021/04/25 09:23:32;;;;;;;11.43;8.37;;;14.00;86.10;;;;;;5073373;28;20709;-48
2021/04/25 09:26:04;;;;;;;10.53;8.70;;;14.10;85.80;;;;;;5074101;28;20214;-48
2021/04/25 09:28:30;;;;;;;10.67;8.27;;;14.20;87.90;;;;;;5073574;28;20170;-47
2021/04/25 09:31:03;;;;;;;8.80;7.87;;;14.40;87.90;;;;;;5074113;28;20208;-47
2021/04/25 09:33:57;;;;;;;10.97;8.67;;;14.30;87.20;;;;;;5074246;28;20187;-47
2021/04/25 09:36:28;;;;;;;11.47;8.67;;;14.20;86.40;;;;;;5074755;28;20197;-49
2021/04/25 09:39:15;;;;;;;10.83;8.53;;;14.30;85.00;;;;;;5074611;28;20291;-49
2021/04/25 09:41:40;;;;;;;10.83;9.13;;;14.30;87.10;;;;;;5074751;28;20176;-49
2021/04/25 09:44:07;;;;;;;11.73;7.87;;;14.30;86.40;;;;;;5074344;28;20276;-54
2021/04/25 09:46:57;;;;;;;9.43;7.80;;;14.40;90.30;;;;;;5074360;28;20294;-47
2021/04/25 09:49:43;;;;;;;12.20;8.70;;;14.50;86.70;;;;;;5056835;28;20181;-51
2021/04/25 09:52:12;;;;;;;10.60;8.13;;;14.40;83.80;;;;;;5074028;28;20201;-50
2021/04/25 09:54:38;;;;;;;12.47;7.90;;;14.60;83.80;;;;;;5074532;28;20199;-49
2021/04/25 09:57:04;;;;;;;9.87;7.97;;;14.60;87.80;;;;;;5074235;28;20202;-53
2021/04/25 09:59:30;;;;;;;9.93;7.00;;;14.80;83.90;;;;;;5074363;28;20197;-49
2021/04/25 10:02:09;;;;;;;9.83;7.53;;;14.90;83.60;;;;;;5073767;28;20534;-49
2021/04/25 10:04:37;;;;;;;8.70;7.50;;;15.10;83.20;;;;;;5074141;28;20235;-51
2021/04/25 10:07:10;;;;;;;9.27;8.07;;;15.10;85.50;;;;;;5074931;28;20224;-50
2021/04/25 10:09:35;;;;;;;11.43;7.90;;;15.20;81.90;;;;;;5074844;28;20185;-50
2021/04/25 10:12:03;;;;;;;11.10;8.57;;;15.20;86.50;;;;;;5073420;28;20177;-51
2021/04/25 10:14:31;;;;;;;12.37;8.40;;;15.10;81.80;;;;;;5074141;28;20202;-52
2021/04/25 10:16:58;;;;;;;9.33;8.33;;;15.20;82.70;;;;;;5073701;28;20578;-49
2021/04/25 10:19:24;;;;;;;10.10;8.97;;;15.20;82.60;;;;;;5073926;28;20206;-47
2021/04/25 10:21:51;;;;;;;11.97;8.50;;;15.20;82.00;;;;;;5073656;28;20228;-55
2021/04/25 10:24:19;;;;;;;9.97;8.20;;;15.30;84.00;;;;;;5074398;28;20182;-49
2021/04/25 10:27:05;;;;;;;10.53;7.83;;;15.20;80.90;;;;;;5074464;28;20210;-51
2021/04/25 10:29:41;;;;;;;10.27;7.87;;;15.30;84.00;;;;;;5073264;28;20740;-49
2021/04/25 10:32:09;;;;;;;8.77;7.60;;;15.50;80.30;;;;;;5073108;28;20181;-47
2021/04/25 10:34:35;;;;;;;11.37;8.10;;;15.50;80.20;;;;;;5073670;28;20653;-51
2021/04/25 10:37:08;;;;;;;8.70;7.70;;;15.60;79.00;;;;;;5074064;28;20230;-56
2021/04/25 10:39:35;;;;;;;11.60;8.40;;;15.60;79.60;;;;;;5073619;28;20205;-46
2021/04/25 10:42:16;;;;;;;10.63;7.23;;;15.80;84.60;;;;;;5073480;28;20167;-54
2021/04/25 10:45:17;;;;;;;8.80;7.50;;;16.00;81.60;;;;;;5073782;28;20174;-48
2021/04/25 10:47:45;;;;;;;10.07;6.97;;;15.90;75.20;;;;;;5073775;28;20221;-50
2021/04/25 10:50:16;;;;;;;7.77;6.90;;;15.90;78.10;;;;;;5073273;28;20186;-50
2021/04/25 10:52:44;;;;;;;6.97;5.87;;;15.80;79.70;;;;;;5073473;28;20515;-48
2021/04/25 10:55:17;;;;;;;8.30;6.37;;;16.20;80.50;;;;;;5073466;28;20496;-49
2021/04/25 10:57:52;;;;;;;9.27;7.17;;;16.60;78.20;;;;;;5073894;28;20213;-50
2021/04/25 11:00:33;;;;;;;8.93;6.67;;;16.90;80.70;;;;;;5073788;28;20186;-51
2021/04/25 11:02:59;;;;;;;9.77;6.87;;;16.90;70.90;;;;;;5073641;28;20266;-49
2021/04/25 11:05:37;;;;;;;8.70;7.80;;;17.00;73.80;;;;;;5073315;28;20178;-49
2021/04/25 11:08:04;;;;;;;10.40;7.63;;;17.20;74.60;;;;;;5073493;28;20622;-47
2021/04/25 11:10:45;;;;;;;9.30;7.80;;;17.10;73.70;;;;;;5073089;28;20176;-50
2021/04/25 11:13:35;;;;;;;10.43;8.53;;;17.00;73.20;;;;;;5072898;28;20244;-47
2021/04/25 11:18:50;;;;;;;10.63;9.13;;;16.60;76.10;;;;;;5073658;28;20171;-50
2021/04/25 11:24:02;;;;;;;9.07;7.97;;;16.50;76.40;;;;;;5076308;28;20177;-46
2021/04/25 11:26:36;;;;;;;9.30;7.87;;;16.40;77.20;;;;;;5076728;28;20702;-50
2021/04/25 11:29:09;;;;;;;8.33;7.43;;;16.20;75.50;;;;;;5077282;28;20178;-47
2021/04/25 11:31:48;;;;;;;9.47;7.97;;;16.10;76.30;;;;;;5076898;28;20183;-47
2021/04/25 11:34:31;;;;;;;11.30;7.50;;;16.20;74.10;;;;;;5076933;28;20232;-51
2021/04/25 11:37:01;;;;;;;11.53;8.57;;;16.20;71.50;;;;;;5076999;28;20558;-49
2021/04/25 11:39:30;;;;;;;10.60;8.70;;;16.30;72.30;;;;;;5076475;28;20711;-48
2021/04/25 11:41:56;;;;;;;10.23;9.17;;;16.50;75.20;;;;;;5076650;28;20189;-50
2021/04/25 11:44:26;;;;;;;10.53;9.43;;;16.50;76.50;;;;;;5077009;28;20224;-47
2021/04/25 11:46:53;;;;;;;9.53;8.33;;;16.60;80.60;;;;;;5076515;28;20213;-48
2021/04/25 11:49:48;;;;;;;8.00;6.83;;;16.70;80.90;;;;;;5076771;28;20221;-49
2021/04/25 11:52:23;;;;;;;7.17;6.10;;;16.90;77.10;;;;;;5075508;28;20652;-49
2021/04/25 11:54:55;;;;;;;8.33;6.00;;;16.70;74.50;;;;;;5076536;28;20168;-54
2021/04/25 11:57:22;;;;;;;7.13;5.80;;;16.70;72.10;;;;;;5076453;28;20676;-54
2021/04/25 12:00:08;;;;;;;5.60;5.00;;;16.40;71.10;;;;;;5076310;28;20167;-51
2021/04/25 12:02:36;;;;;;;7.97;4.80;;;16.50;71.50;;;;;;5075823;28;20633;-51
2021/04/25 12:05:08;;;;;;;8.63;4.93;;;16.60;72.50;;;;;;5075257;28;20174;-52
2021/04/25 12:07:45;;;;;;;6.27;4.77;;;16.80;69.20;;;;;;5075766;28;20206;-50
2021/04/25 12:10:33;;;;;;;6.80;5.53;;;17.10;69.30;;;;;;5074873;28;20179;-51
2021/04/25 12:13:10;;;;;;;7.27;6.13;;;17.40;69.30;;;;;;5076239;28;20653;-48
2021/04/25 12:15:38;;;;;;;7.93;5.93;;;17.30;67.40;;;;;;5075834;28;20516;-55
2021/04/25 12:18:04;;;;;;;7.93;5.20;;;17.10;68.50;;;;;;5076120;28;20172;-54
2021/04/25 12:20:30;;;;;;;7.77;5.33;;;16.80;66.50;;;;;;5076108;28;20180;-49
2021/04/25 12:22:56;;;;;;;5.50;4.23;;;17.00;69.70;;;;;;5076052;28;20527;-47
2021/04/25 12:25:22;;;;;;;6.47;4.20;;;17.30;66.80;;;;;;5076135;28;20172;-48
2021/04/25 12:27:53;;;;;;;5.73;3.93;;;17.50;65.30;;;;;;5075608;28;20281;-55
2021/04/25 12:30:21;;;;;;;4.97;4.40;;;17.50;64.00;;;;;;5075850;28;20180;-54
2021/04/25 12:32:58;;;;;;;4.13;3.73;;;17.50;59.50;;;;;;5075757;28;20262;-47
2021/04/25 12:35:25;;;;;;;5.83;4.77;;;17.40;61.70;;;;;;5074626;28;20165;-50
2021/04/25 12:37:51;;;;;;;5.50;4.03;;;17.60;59.40;;;;;;5075740;28;20212;-49
2021/04/25 12:40:32;;;;;;;5.00;3.83;;;17.80;57.60;;;;;;5075159;28;20213;-52
2021/04/25 12:43:14;;;;;;;5.20;4.10;;;17.70;57.20;;;;;;5075665;28;20200;-50
2021/04/25 12:45:42;;;;;;;5.20;4.40;;;17.70;58.40;;;;;;5075376;28;20655;-50
2021/04/25 12:48:23;;;;;;;5.43;3.60;;;17.70;58.80;;;;;;5075667;28;20254;-49
2021/04/25 12:51:31;;;;;;;6.10;3.47;;;17.90;59.30;;;;;;5075198;28;20192;-49
2021/04/25 12:53:57;;;;;;;5.60;3.70;;;18.00;54.20;;;;;;5027689;28;20289;-46